Time;durP1;ratioP1;P1;durP2;ratioP2;P2;SDS_P1;SDS_P2;PMS_P1;PMS_P2;Temp;Humidity;BMP_temperature;BMP_pressure;BME280_temperature;BME280_humidity;BME280_pressure;Samples;Min_cycle;Max_cycle;Signal;HPM_P1;HPM_P2
2022/10/05 00:00:21;;;;;;;10.02;4.38;;;15.80;98.90;;;;;;4181798;28;20052;-86
2022/10/05 00:02:23;;;;;;;12.90;4.57;;;15.80;98.70;;;;;;4189278;28;20502;-86
2022/10/05 00:04:27;;;;;;;10.30;4.40;;;15.80;98.80;;;;;;4197927;28;20930;-86
2022/10/05 00:06:29;;;;;;;7.65;4.00;;;15.80;98.70;;;;;;4198178;28;20112;-86
2022/10/05 00:08:33;;;;;;;12.25;4.43;;;15.80;98.80;;;;;;4179674;28;20111;-87
2022/10/05 00:10:33;;;;;;;7.20;3.90;;;15.80;98.70;;;;;;4196610;28;20072;-86
2022/10/05 00:12:34;;;;;;;5.78;3.72;;;15.80;98.80;;;;;;4163492;28;20049;-86
2022/10/05 00:14:35;;;;;;;7.57;3.70;;;15.80;98.80;;;;;;4198287;28;20183;-86
2022/10/05 00:16:36;;;;;;;6.80;3.75;;;15.80;98.90;;;;;;4199277;28;20435;-87
2022/10/05 00:18:38;;;;;;;8.38;4.93;;;15.50;98.80;;;;;;4198349;28;20041;-88
2022/10/05 00:20:40;;;;;;;7.82;4.80;;;15.80;98.80;;;;;;4181994;28;20120;-88
2022/10/05 00:22:41;;;;;;;7.22;4.13;;;15.80;98.90;;;;;;4180938;28;20069;-88
2022/10/05 00:24:50;;;;;;;11.75;4.25;;;15.80;98.90;;;;;;4165459;28;20056;-88
2022/10/05 00:26:51;;;;;;;9.38;4.70;;;16.10;99.10;;;;;;4181421;28;20041;-88
2022/10/05 00:28:53;;;;;;;6.53;3.85;;;15.80;99.00;;;;;;4199332;28;20097;-88
2022/10/05 00:30:56;;;;;;;6.68;3.40;;;15.80;98.90;;;;;;4198134;28;20052;-88
2022/10/05 00:32:56;;;;;;;8.02;4.13;;;15.80;98.90;;;;;;4164728;28;20069;-87
2022/10/05 00:34:57;;;;;;;7.80;4.38;;;15.80;99.00;;;;;;4181574;28;20045;-88
2022/10/05 00:36:58;;;;;;;6.63;3.67;;;15.80;99.00;;;;;;4199359;28;20091;-87
2022/10/05 00:39:00;;;;;;;12.27;4.22;;;15.80;99.00;;;;;;4181822;28;20049;-88
2022/10/05 00:41:19;;;;;;;6.97;3.97;;;15.80;99.10;;;;;;4181759;28;20045;-87
2022/10/05 00:43:45;;;;;;;9.27;4.32;;;15.80;99.10;;;;;;4199028;28;20060;-88
2022/10/05 00:46:09;;;;;;;7.40;3.83;;;15.70;99.30;;;;;;4198448;28;20044;-88
2022/10/05 00:48:21;;;;;;;8.88;3.80;;;15.70;99.00;;;;;;4181275;28;20857;-88
2022/10/05 00:50:47;;;;;;;7.18;3.67;;;15.70;99.10;;;;;;4181958;28;20041;-88
2022/10/05 00:53:07;;;;;;;6.25;3.42;;;15.70;99.00;;;;;;4202200;28;20036;-88
2022/10/05 00:55:45;;;;;;;9.18;4.32;;;15.70;99.20;;;;;;4184512;28;20060;-88
2022/10/05 00:58:10;;;;;;;8.82;3.17;;;15.70;99.20;;;;;;4184493;28;20052;-88
2022/10/05 01:00:17;;;;;;;6.25;3.42;;;15.70;99.10;;;;;;4184269;28;20049;-87
2022/10/05 01:02:49;;;;;;;5.20;3.50;;;15.70;99.00;;;;;;4201683;28;20071;-88
2022/10/05 01:04:59;;;;;;;8.10;3.25;;;15.70;99.30;;;;;;4201846;28;20053;-88
2022/10/05 01:07:24;;;;;;;10.63;3.35;;;15.70;99.10;;;;;;4202329;28;20032;-88
2022/10/05 01:09:52;;;;;;;7.72;3.35;;;15.70;99.10;;;;;;4201613;28;20048;-87
2022/10/05 01:12:44;;;;;;;6.57;2.85;;;15.70;99.10;;;;;;4153923;28;20052;-88
2022/10/05 01:15:21;;;;;;;5.05;2.90;;;15.60;99.30;;;;;;4165993;28;20057;-88
2022/10/05 01:17:38;;;;;;;7.15;2.92;;;15.60;99.10;;;;;;4202055;28;20044;-88
2022/10/05 01:19:49;;;;;;;3.70;2.55;;;15.70;98.90;;;;;;4184583;28;20060;-89
2022/10/05 01:21:58;;;;;;;3.33;2.38;;;15.70;99.00;;;;;;4201026;28;20040;-88
2022/10/05 01:24:38;;;;;;;7.82;3.47;;;15.60;98.90;;;;;;4200621;28;20131;-89
2022/10/05 01:27:02;;;;;;;5.93;2.33;;;15.60;99.10;;;;;;4184480;28;20135;-88
2022/10/05 01:29:08;;;;;;;8.20;2.75;;;15.60;99.10;;;;;;4184017;28;20132;-88
2022/10/05 01:31:35;;;;;;;6.72;2.53;;;15.60;98.90;;;;;;4184167;28;20049;-88
2022/10/05 01:33:45;;;;;;;4.18;2.33;;;15.60;99.00;;;;;;4183918;28;20135;-87
2022/10/05 01:35:45;;;;;;;6.18;2.70;;;15.60;98.80;;;;;;4184196;28;20083;-87
2022/10/05 01:37:59;;;;;;;3.53;2.40;;;15.70;99.00;;;;;;4184438;28;20041;-88
2022/10/05 01:40:24;;;;;;;6.15;2.20;;;15.70;99.10;;;;;;4201742;28;20686;-88
2022/10/05 01:42:43;;;;;;;3.55;2.25;;;15.70;99.10;;;;;;4185590;28;20045;-88
2022/10/05 01:45:09;;;;;;;6.32;2.40;;;15.70;98.90;;;;;;4185550;28;20049;-87
2022/10/05 01:47:39;;;;;;;5.43;2.58;;;15.70;99.10;;;;;;4157706;28;20088;-88
2022/10/05 01:50:14;;;;;;;5.68;2.50;;;15.70;99.00;;;;;;4191512;28;20056;-88
2022/10/05 01:52:25;;;;;;;8.27;3.33;;;15.70;99.50;;;;;;4189170;28;20057;-88
2022/10/05 01:54:54;;;;;;;4.18;2.78;;;15.70;98.90;;;;;;4168468;28;20084;-88
2022/10/05 01:57:03;;;;;;;6.57;2.90;;;15.70;99.20;;;;;;4184121;28;20049;-87
2022/10/05 01:59:26;;;;;;;9.25;2.90;;;15.70;99.10;;;;;;4201105;28;20066;-88
2022/10/05 02:01:45;;;;;;;8.32;3.13;;;15.70;99.20;;;;;;4183805;28;20037;-87
2022/10/05 02:03:58;;;;;;;5.47;2.60;;;15.60;99.20;;;;;;4183704;28;20053;-88
2022/10/05 02:06:05;;;;;;;7.18;2.88;;;15.60;99.30;;;;;;4200424;28;20140;-88
2022/10/05 02:08:34;;;;;;;10.70;2.92;;;15.60;99.00;;;;;;4191424;28;20048;-87
2022/10/05 02:10:40;;;;;;;5.93;3.15;;;15.60;99.20;;;;;;4180289;28;20063;-87
2022/10/05 02:12:43;;;;;;;7.15;3.72;;;15.60;99.30;;;;;;4183603;28;20045;-88
2022/10/05 02:14:49;;;;;;;8.23;3.97;;;15.60;99.20;;;;;;4183274;28;20079;-88
2022/10/05 02:16:53;;;;;;;7.68;3.05;;;15.60;99.30;;;;;;4199432;28;20044;-88
2022/10/05 02:19:26;;;;;;;5.78;2.75;;;15.50;99.30;;;;;;4200445;28;20249;-88
2022/10/05 02:21:29;;;;;;;6.68;3.65;;;15.60;99.50;;;;;;4200637;28;20044;-86
2022/10/05 02:23:34;;;;;;;7.70;3.30;;;15.60;99.50;;;;;;4200328;28;20045;-87
2022/10/05 02:25:41;;;;;;;9.02;2.88;;;15.50;99.60;;;;;;4183045;28;20057;-86
2022/10/05 02:27:54;;;;;;;6.20;2.78;;;15.50;99.60;;;;;;4182980;28;20045;-87
2022/10/05 02:30:02;;;;;;;6.13;3.53;;;15.50;99.70;;;;;;4182787;28;20117;-86
2022/10/05 02:32:14;;;;;;;5.70;2.72;;;15.50;99.70;;;;;;4184246;28;20120;-87
2022/10/05 02:34:49;;;;;;;6.00;2.80;;;15.50;99.70;;;;;;4183342;28;20128;-87
2022/10/05 02:37:08;;;;;;;6.55;3.05;;;15.50;99.90;;;;;;4185460;28;20060;-87
2022/10/05 02:39:18;;;;;;;4.15;2.80;;;15.40;99.80;;;;;;4189766;28;20052;-87
2022/10/05 02:41:40;;;;;;;6.72;3.00;;;15.50;99.90;;;;;;4159070;28;20050;-87
2022/10/05 02:43:41;;;;;;;4.47;2.78;;;15.40;99.80;;;;;;4179649;28;20124;-87
2022/10/05 02:45:54;;;;;;;10.30;3.47;;;15.50;99.80;;;;;;4188680;28;20405;-87
2022/10/05 02:48:03;;;;;;;4.82;2.80;;;15.50;99.90;;;;;;4192060;28;20103;-86
2022/10/05 02:50:11;;;;;;;6.13;2.92;;;15.50;99.90;;;;;;4208013;28;20055;-86
2022/10/05 02:52:24;;;;;;;7.93;3.22;;;15.50;99.90;;;;;;4207588;28;20481;-87
2022/10/05 02:55:03;;;;;;;7.18;3.10;;;15.50;99.90;;;;;;4207351;28;20041;-86
2022/10/05 02:57:15;;;;;;;4.90;2.75;;;15.50;99.90;;;;;;4188209;28;20056;-86
2022/10/05 02:59:22;;;;;;;6.00;2.90;;;15.50;99.90;;;;;;4183842;28;20056;-86
2022/10/05 03:01:49;;;;;;;6.15;2.88;;;15.50;99.90;;;;;;4183737;28;20044;-86
2022/10/05 03:04:10;;;;;;;10.13;3.70;;;15.50;99.90;;;;;;4190081;28;20585;-86
2022/10/05 03:06:24;;;;;;;7.32;3.53;;;15.50;99.90;;;;;;4173102;28;20061;-86
2022/10/05 03:08:58;;;;;;;4.82;2.50;;;15.50;99.90;;;;;;4191511;28;20053;-87
2022/10/05 03:11:02;;;;;;;7.88;3.00;;;15.50;99.90;;;;;;4179383;28;20049;-88
2022/10/05 03:13:16;;;;;;;5.72;2.55;;;15.50;99.90;;;;;;4189076;28;20131;-87
2022/10/05 03:15:54;;;;;;;5.10;2.97;;;15.50;99.90;;;;;;4205572;28;20040;-89
2022/10/05 03:18:05;;;;;;;6.67;2.93;;;15.60;99.90;;;;;;4188844;28;20521;-86
2022/10/05 03:20:09;;;;;;;5.13;2.83;;;15.60;99.90;;;;;;4171622;28;20328;-86
2022/10/05 03:22:18;;;;;;;7.18;3.45;;;15.60;99.80;;;;;;4183442;28;20049;-89
2022/10/05 03:24:48;;;;;;;5.72;2.85;;;15.60;99.90;;;;;;4182892;28;20432;-87
2022/10/05 03:26:55;;;;;;;9.65;2.95;;;15.60;99.90;;;;;;4181257;28;20127;-88
2022/10/05 03:29:12;;;;;;;4.50;2.40;;;15.60;99.80;;;;;;4200588;28;20051;-88
2022/10/05 03:31:47;;;;;;;7.03;2.83;;;15.60;99.80;;;;;;4182652;28;20136;-87
2022/10/05 03:34:06;;;;;;;6.82;2.28;;;15.60;99.90;;;;;;4199325;28;20439;-87
2022/10/05 03:36:14;;;;;;;;;;;15.60;99.90;;;;;;4200621;28;20123;-88
2022/10/05 03:38:28;;;;;;;5.65;2.55;;;15.60;99.90;;;;;;4199513;28;19921;-87
2022/10/05 03:40:58;;;;;;;4.53;2.65;;;15.60;99.80;;;;;;4182371;28;20539;-88
2022/10/05 03:43:29;;;;;;;6.00;2.53;;;15.60;99.90;;;;;;4200624;28;20117;-87
2022/10/05 03:46:05;;;;;;;3.47;2.42;;;15.50;99.80;;;;;;4182993;28;20060;-87
2022/10/05 03:48:24;;;;;;;9.68;3.40;;;15.50;99.90;;;;;;4144959;28;20064;-87
2022/10/05 03:51:13;;;;;;;6.15;2.42;;;15.50;99.70;;;;;;4183478;28;20063;-88
2022/10/05 03:53:24;;;;;;;8.65;2.65;;;15.50;99.80;;;;;;4152610;28;20103;-88
2022/10/05 03:55:44;;;;;;;5.22;2.05;;;15.50;99.60;;;;;;4182302;28;20056;-87
2022/10/05 03:57:47;;;;;;;6.45;2.50;;;15.50;99.70;;;;;;4199124;28;20056;-87
2022/10/05 03:59:57;;;;;;;2.47;2.00;;;15.50;99.70;;;;;;4182061;28;20052;-87
2022/10/05 04:02:05;;;;;;;7.22;2.08;;;15.50;99.70;;;;;;4182147;28;20083;-87
2022/10/05 04:04:16;;;;;;;3.88;2.53;;;15.50;99.70;;;;;;4199425;28;20036;-87
2022/10/05 04:06:32;;;;;;;7.68;2.45;;;15.50;99.60;;;;;;4165432;28;20049;-87
2022/10/05 04:08:43;;;;;;;4.07;1.90;;;15.50;99.60;;;;;;4183356;28;20045;-87
2022/10/05 04:10:46;;;;;;;5.43;2.30;;;15.50;99.50;;;;;;4164824;28;20083;-87
2022/10/05 04:13:01;;;;;;;5.38;2.00;;;15.50;99.40;;;;;;4183159;28;20041;-87
2022/10/05 04:15:19;;;;;;;4.32;2.30;;;15.50;99.50;;;;;;4165290;28;20046;-87
2022/10/05 04:17:32;;;;;;;4.00;2.25;;;15.50;99.60;;;;;;4194572;28;20052;-87
2022/10/05 04:19:44;;;;;;;3.97;2.53;;;15.50;99.60;;;;;;4181561;28;20090;-87
2022/10/05 04:21:52;;;;;;;6.88;2.92;;;15.50;99.70;;;;;;4181618;28;20049;-87
2022/10/05 04:24:12;;;;;;;3.13;2.13;;;15.40;99.60;;;;;;4181267;28;20382;-87
2022/10/05 04:26:18;;;;;;;6.60;2.47;;;15.40;99.70;;;;;;4200213;28;20148;-87
2022/10/05 04:28:39;;;;;;;6.18;2.33;;;15.40;99.70;;;;;;4202355;28;20053;-87
2022/10/05 04:30:44;;;;;;;7.03;2.63;;;15.40;99.70;;;;;;4201632;28;20052;-87
2022/10/05 04:32:56;;;;;;;5.63;2.88;;;15.40;99.90;;;;;;4183808;28;20088;-87
2022/10/05 04:35:22;;;;;;;3.70;2.50;;;15.40;99.90;;;;;;4183833;28;20077;-87
2022/10/05 04:37:37;;;;;;;6.40;2.78;;;15.40;99.70;;;;;;4167978;28;20087;-87
2022/10/05 04:40:05;;;;;;;4.88;2.60;;;15.40;99.70;;;;;;4183133;28;20053;-87
2022/10/05 04:42:37;;;;;;;5.00;2.72;;;15.40;99.70;;;;;;4181333;28;20048;-86
2022/10/05 04:44:56;;;;;;;5.80;2.38;;;15.40;99.70;;;;;;4182120;28;20053;-87
2022/10/05 04:47:36;;;;;;;7.78;2.83;;;15.40;99.80;;;;;;4201085;28;20068;-87
2022/10/05 04:50:17;;;;;;;7.47;2.63;;;15.40;99.80;;;;;;4182624;28;20453;-87
2022/10/05 04:52:33;;;;;;;7.50;3.20;;;15.30;99.90;;;;;;4183476;28;20044;-87
2022/10/05 04:54:42;;;;;;;3.78;2.50;;;15.40;99.70;;;;;;4166671;28;20132;-87
2022/10/05 04:57:04;;;;;;;4.13;2.30;;;15.40;99.80;;;;;;4200198;28;20040;-87
2022/10/05 04:59:14;;;;;;;6.47;3.15;;;15.30;99.90;;;;;;4183878;28;20057;-88
2022/10/05 05:01:23;;;;;;;6.05;2.55;;;15.30;99.70;;;;;;4184365;28;20532;-87
2022/10/05 05:04:07;;;;;;;5.30;2.83;;;15.30;99.80;;;;;;4201582;28;20048;-87
2022/10/05 05:06:31;;;;;;;8.07;2.80;;;15.30;99.90;;;;;;4183697;28;20041;-87
2022/10/05 05:08:50;;;;;;;9.20;3.30;;;15.30;99.90;;;;;;4201103;28;20508;-87
2022/10/05 05:11:35;;;;;;;8.38;3.65;;;15.30;99.70;;;;;;4167506;28;20515;-86
2022/10/05 05:13:54;;;;;;;8.65;3.45;;;15.30;99.90;;;;;;4144235;28;20058;-86
2022/10/05 05:16:31;;;;;;;7.65;3.30;;;15.30;99.90;;;;;;4185559;28;20097;-88
2022/10/05 05:18:54;;;;;;;7.38;3.83;;;15.30;99.90;;;;;;4170345;28;20484;-87
2022/10/05 05:21:16;;;;;;;7.13;3.13;;;15.30;99.90;;;;;;4199824;28;20047;-87
2022/10/05 05:23:56;;;;;;;7.45;3.67;;;15.30;99.90;;;;;;4200212;28;20066;-87
2022/10/05 05:26:11;;;;;;;6.82;3.72;;;15.30;99.90;;;;;;4200856;28;20054;-88
2022/10/05 05:28:30;;;;;;;6.30;3.80;;;15.30;99.90;;;;;;4168186;28;20517;-87
2022/10/05 05:30:46;;;;;;;6.57;3.80;;;15.30;99.90;;;;;;4201862;28;20048;-87
2022/10/05 05:32:57;;;;;;;9.25;4.65;;;15.30;99.90;;;;;;4183081;28;20118;-87
2022/10/05 05:34:58;;;;;;;7.43;4.15;;;15.20;99.90;;;;;;4183107;28;20124;-87
2022/10/05 05:37:12;;;;;;;7.72;4.57;;;15.30;99.90;;;;;;4199621;28;20041;-88
2022/10/05 05:39:30;;;;;;;11.18;4.50;;;15.20;99.90;;;;;;4200656;28;20055;-87
2022/10/05 05:41:38;;;;;;;8.07;4.32;;;15.30;99.90;;;;;;4164880;28;20049;-86
2022/10/05 05:43:42;;;;;;;9.10;3.80;;;15.30;99.90;;;;;;4198920;28;20043;-86
2022/10/05 05:46:00;;;;;;;5.85;3.63;;;15.20;99.90;;;;;;4198193;28;20048;-87
2022/10/05 05:48:06;;;;;;;8.55;4.10;;;15.20;99.90;;;;;;4165429;28;20128;-86
2022/10/05 05:50:29;;;;;;;7.53;3.97;;;15.20;99.90;;;;;;4199878;28;20462;-87
2022/10/05 05:52:37;;;;;;;6.43;3.83;;;15.20;99.90;;;;;;4199549;28;20115;-87
2022/10/05 05:54:48;;;;;;;8.43;3.88;;;15.20;99.90;;;;;;4204475;28;20481;-87
2022/10/05 05:56:57;;;;;;;8.63;4.22;;;15.20;99.90;;;;;;4182046;28;20048;-86
2022/10/05 05:59:05;;;;;;;10.80;3.50;;;15.20;99.90;;;;;;4200219;28;20040;-87
2022/10/05 06:01:08;;;;;;;8.02;3.72;;;15.20;99.90;;;;;;4198364;28;20040;-87
2022/10/05 06:03:29;;;;;;;7.28;3.20;;;15.20;99.90;;;;;;4199802;28;20049;-87
2022/10/05 06:05:35;;;;;;;8.50;3.42;;;15.20;99.90;;;;;;4198947;28;20040;-87
2022/10/05 06:07:37;;;;;;;6.03;3.35;;;15.20;99.90;;;;;;4181678;28;20412;-87
2022/10/05 06:10:05;;;;;;;9.07;3.72;;;15.20;99.90;;;;;;4182214;28;20040;-87
2022/10/05 06:12:20;;;;;;;9.77;4.00;;;15.20;99.90;;;;;;4199040;28;20052;-87
2022/10/05 06:14:30;;;;;;;8.80;3.40;;;15.20;99.90;;;;;;4199060;28;20145;-87
2022/10/05 06:16:41;;;;;;;8.95;2.97;;;15.20;99.90;;;;;;4199264;28;20104;-87
2022/10/05 06:18:50;;;;;;;8.57;4.07;;;15.20;99.90;;;;;;4182143;28;20037;-87
2022/10/05 06:20:58;;;;;;;;;;;15.30;99.90;;;;;;4198479;28;20083;-87
2022/10/05 06:23:04;;;;;;;5.90;3.10;;;15.30;99.90;;;;;;4164713;28;19971;-86
2022/10/05 06:25:11;;;;;;;6.03;3.00;;;15.20;99.90;;;;;;4184247;28;20041;-87
2022/10/05 06:27:25;;;;;;;7.10;3.78;;;15.20;99.90;;;;;;4166015;28;20069;-89
2022/10/05 06:29:47;;;;;;;6.65;3.42;;;15.30;99.90;;;;;;4165859;28;20045;-86
2022/10/05 06:32:14;;;;;;;7.55;3.25;;;15.30;99.90;;;;;;4165557;28;20049;-88
2022/10/05 06:34:52;;;;;;;8.63;4.22;;;15.30;99.80;;;;;;4188181;28;20155;-88
2022/10/05 06:37:06;;;;;;;4.75;3.30;;;15.30;99.90;;;;;;4204149;28;20041;-88
2022/10/05 06:39:35;;;;;;;6.63;3.20;;;15.30;99.80;;;;;;4182403;28;20044;-87
2022/10/05 06:41:43;;;;;;;7.93;3.60;;;15.30;99.90;;;;;;4181958;28;20052;-90
2022/10/05 06:44:02;;;;;;;5.90;3.40;;;15.30;99.80;;;;;;4200439;28;20051;-88
2022/10/05 06:46:14;;;;;;;6.32;3.25;;;15.30;99.80;;;;;;4173961;28;20049;-88
2022/10/05 06:48:39;;;;;;;4.93;3.15;;;15.30;99.70;;;;;;4194060;28;20130;-88
2022/10/05 06:50:46;;;;;;;9.65;3.13;;;15.30;99.80;;;;;;4181971;28;20683;-89
2022/10/05 06:52:46;;;;;;;7.03;3.88;;;15.30;99.60;;;;;;4181924;28;20056;-87
2022/10/05 06:54:59;;;;;;;5.10;3.35;;;15.30;99.60;;;;;;4199994;28;20103;-88
2022/10/05 06:57:18;;;;;;;7.82;3.28;;;15.30;99.60;;;;;;4166467;28;20057;-88
2022/10/05 06:59:26;;;;;;;8.57;3.05;;;15.30;99.60;;;;;;4181666;28;20088;-88
2022/10/05 07:01:38;;;;;;;6.83;2.93;;;15.30;99.60;;;;;;4199206;28;20053;-88
2022/10/05 07:04:03;;;;;;;8.32;2.92;;;15.30;99.70;;;;;;4182217;28;20060;-89
2022/10/05 07:06:31;;;;;;;6.38;2.97;;;15.30;99.70;;;;;;4181515;28;20554;-86
2022/10/05 07:09:13;;;;;;;8.13;3.25;;;15.30;99.70;;;;;;4199563;28;20469;-86
2022/10/05 07:11:19;;;;;;;6.18;2.80;;;15.30;99.70;;;;;;4160306;28;20067;-86
2022/10/05 07:13:41;;;;;;;6.22;2.78;;;15.40;99.60;;;;;;4181908;28;20041;-86
2022/10/05 07:16:13;;;;;;;3.67;2.42;;;15.40;99.60;;;;;;4198616;28;20093;-86
2022/10/05 07:18:28;;;;;;;3.90;2.50;;;15.40;99.50;;;;;;4182210;28;20056;-87
2022/10/05 07:20:52;;;;;;;8.15;3.28;;;15.40;99.40;;;;;;4181741;28;20051;-87
2022/10/05 07:23:15;;;;;;;4.15;2.40;;;15.40;99.30;;;;;;4200740;28;20048;-87
2022/10/05 07:25:39;;;;;;;7.55;3.00;;;15.40;99.30;;;;;;4166265;28;20107;-87
2022/10/05 07:27:50;;;;;;;6.75;2.78;;;15.40;99.20;;;;;;4200725;28;20045;-86
2022/10/05 07:30:03;;;;;;;7.72;3.00;;;15.50;99.20;;;;;;4199522;28;20047;-88
2022/10/05 07:32:13;;;;;;;10.07;3.15;;;15.50;99.20;;;;;;4164873;28;20049;-88
2022/10/05 07:34:32;;;;;;;5.18;2.53;;;15.50;99.10;;;;;;4165339;28;20072;-88
2022/10/05 07:39:34;;;;;;;5.53;2.80;;;15.50;99.00;;;;;;4182439;28;20424;-87
2022/10/05 07:41:50;;;;;;;4.32;2.67;;;15.50;99.00;;;;;;4181439;28;20049;-87
2022/10/05 07:44:07;;;;;;;9.65;3.05;;;15.50;98.90;;;;;;4199598;28;20028;-88
2022/10/05 07:46:31;;;;;;;9.65;3.88;;;15.50;98.90;;;;;;4198945;28;20072;-86
2022/10/05 07:49:07;;;;;;;5.28;3.17;;;15.60;99.00;;;;;;4199598;28;20079;-86
2022/10/05 07:51:19;;;;;;;4.97;2.08;;;15.60;98.80;;;;;;4181348;28;20049;-87
2022/10/05 07:53:38;;;;;;;4.70;2.20;;;15.60;98.70;;;;;;4181858;28;20049;-88
2022/10/05 07:55:51;;;;;;;6.97;2.88;;;15.60;98.70;;;;;;4199061;28;20044;-87
2022/10/05 07:58:11;;;;;;;5.45;3.08;;;15.50;98.60;;;;;;4198882;28;20072;-87
2022/10/05 08:00:17;;;;;;;4.65;2.17;;;15.70;98.60;;;;;;4198452;28;20079;-88
2022/10/05 08:02:41;;;;;;;3.60;2.15;;;15.70;98.50;;;;;;4181882;28;20068;-87
2022/10/05 08:05:08;;;;;;;8.48;2.15;;;15.70;98.50;;;;;;4181188;28;20100;-87
2022/10/05 08:07:14;;;;;;;4.63;2.10;;;15.80;98.40;;;;;;4196115;28;20056;-88
2022/10/05 08:09:44;;;;;;;3.67;2.22;;;15.80;98.40;;;;;;4198650;28;20050;-87
2022/10/05 08:12:00;;;;;;;6.35;1.98;;;15.80;98.20;;;;;;4162646;28;20092;-87
2022/10/05 08:14:19;;;;;;;3.60;1.67;;;15.80;98.20;;;;;;4165765;28;20046;-87
2022/10/05 08:16:25;;;;;;;4.20;1.88;;;16.10;98.10;;;;;;4183499;28;20102;-87
2022/10/05 08:18:40;;;;;;;3.22;1.50;;;15.90;98.00;;;;;;4200926;28;20044;-87
2022/10/05 08:20:57;;;;;;;2.90;1.80;;;15.90;97.90;;;;;;4201180;28;20075;-87
2022/10/05 08:23:13;;;;;;;3.42;1.85;;;15.90;97.80;;;;;;4200496;28;20059;-86
2022/10/05 08:25:23;;;;;;;2.83;1.50;;;16.00;97.80;;;;;;4199785;28;20049;-86
2022/10/05 08:27:45;;;;;;;4.13;1.33;;;16.00;97.80;;;;;;4201411;28;20040;-87
2022/10/05 08:30:00;;;;;;;2.25;1.42;;;16.00;97.60;;;;;;4201835;28;20041;-87
2022/10/05 08:32:05;;;;;;;3.95;1.20;;;16.00;97.50;;;;;;4167069;28;20064;-86
2022/10/05 08:34:24;;;;;;;5.30;1.30;;;16.10;97.40;;;;;;4202807;28;20036;-88
2022/10/05 08:36:46;;;;;;;2.20;1.33;;;16.20;97.30;;;;;;4184347;28;20049;-88
2022/10/05 08:38:53;;;;;;;2.10;1.33;;;16.20;97.00;;;;;;4200681;28;20066;-88
2022/10/05 08:41:11;;;;;;;2.78;0.93;;;16.30;97.00;;;;;;4183673;28;20136;-88
2022/10/05 08:43:42;;;;;;;3.63;1.00;;;16.30;96.80;;;;;;4185422;28;20051;-89
2022/10/05 08:46:21;;;;;;;2.42;1.10;;;16.40;96.70;;;;;;4184394;28;20057;-88
2022/10/05 08:48:47;;;;;;;3.33;1.10;;;16.40;96.70;;;;;;4164816;28;20041;-88
2022/10/05 08:51:06;;;;;;;1.98;0.90;;;16.40;96.60;;;;;;4180728;28;20311;-89
2022/10/05 08:53:44;;;;;;;2.05;1.15;;;16.50;96.20;;;;;;4180813;28;20052;-88
2022/10/05 08:55:51;;;;;;;1.52;1.10;;;16.50;96.30;;;;;;4179705;28;20057;-88
2022/10/05 08:58:24;;;;;;;1.15;1.00;;;16.60;96.30;;;;;;4199616;28;20044;-89
2022/10/05 09:00:55;;;;;;;1.20;0.85;;;16.70;96.20;;;;;;4190612;28;20057;-90
2022/10/05 09:03:01;;;;;;;1.42;1.25;;;16.80;96.00;;;;;;4177702;28;20049;-89
2022/10/05 09:05:44;;;;;;;3.33;1.42;;;16.70;96.10;;;;;;4176812;28;20083;-88
2022/10/05 09:08:24;;;;;;;2.55;1.50;;;16.70;95.90;;;;;;4150827;28;20046;-88
2022/10/05 09:10:57;;;;;;;2.90;1.20;;;16.70;95.90;;;;;;4166090;28;20049;-89
2022/10/05 09:13:45;;;;;;;2.70;1.40;;;16.80;96.10;;;;;;4166990;28;20048;-88
2022/10/05 09:16:10;;;;;;;2.15;1.30;;;17.00;95.60;;;;;;4167028;28;20080;-88
2022/10/05 09:18:30;;;;;;;3.72;1.40;;;17.20;95.60;;;;;;4174382;28;20049;-89
2022/10/05 09:20:42;;;;;;;2.80;1.25;;;17.30;95.30;;;;;;4195096;28;20094;-88
2022/10/05 09:23:01;;;;;;;5.43;1.67;;;17.60;95.20;;;;;;4200305;28;20056;-89
2022/10/05 09:25:16;;;;;;;3.78;1.58;;;17.80;94.70;;;;;;4170210;28;20433;-88
2022/10/05 09:27:18;;;;;;;4.15;1.40;;;18.10;94.60;;;;;;4172763;28;20049;-88
2022/10/05 09:29:49;;;;;;;3.10;1.73;;;18.50;94.10;;;;;;4184761;28;20048;-89
2022/10/05 09:32:29;;;;;;;2.25;1.08;;;18.90;93.90;;;;;;4183043;28;20489;-89
2022/10/05 09:34:35;;;;;;;3.42;1.55;;;19.00;92.40;;;;;;4182388;28;20468;-88
2022/10/05 09:36:58;;;;;;;2.72;1.70;;;19.60;92.80;;;;;;4183977;28;20103;-88
2022/10/05 09:39:27;;;;;;;3.15;1.50;;;19.60;91.00;;;;;;4167607;28;20061;-88
2022/10/05 09:41:27;;;;;;;;;;;19.30;91.50;;;;;;4185805;28;20040;-88
2022/10/05 09:44:11;;;;;;;4.68;1.65;;;18.80;91.30;;;;;;4182979;28;19921;-88
2022/10/05 09:46:41;;;;;;;3.13;1.58;;;18.70;92.60;;;;;;4184209;28;20049;-89
2022/10/05 09:49:13;;;;;;;2.88;1.65;;;18.60;93.10;;;;;;4184503;28;20037;-88
2022/10/05 09:51:51;;;;;;;5.97;1.70;;;18.50;92.60;;;;;;4183986;28;20037;-88
2022/10/05 09:54:27;;;;;;;3.30;1.67;;;18.20;92.70;;;;;;4184379;28;20041;-87
2022/10/05 09:56:41;;;;;;;4.55;1.42;;;18.10;92.70;;;;;;4166315;28;20106;-88
2022/10/05 09:58:47;;;;;;;5.60;1.63;;;18.10;93.60;;;;;;4182823;28;20057;-88
2022/10/05 10:00:54;;;;;;;6.32;2.25;;;18.10;93.40;;;;;;4184117;28;20099;-89
2022/10/05 10:03:26;;;;;;;5.88;1.52;;;18.20;93.40;;;;;;4165559;28;20061;-87
2022/10/05 10:05:38;;;;;;;3.33;1.40;;;18.10;93.00;;;;;;4182866;28;20131;-87
2022/10/05 10:08:10;;;;;;;5.20;1.55;;;18.10;93.20;;;;;;4184395;28;20069;-88
2022/10/05 10:10:48;;;;;;;2.78;1.48;;;18.10;92.60;;;;;;4186508;28;20068;-88
2022/10/05 10:13:03;;;;;;;3.35;1.60;;;18.00;92.90;;;;;;4167653;28;20666;-87
2022/10/05 10:15:33;;;;;;;3.55;1.67;;;18.00;93.40;;;;;;4183531;28;20139;-87
2022/10/05 10:18:00;;;;;;;5.28;1.40;;;18.00;93.40;;;;;;4184308;28;20463;-87
2022/10/05 10:20:23;;;;;;;2.47;1.30;;;17.90;93.40;;;;;;4200681;28;20056;-87
2022/10/05 10:22:32;;;;;;;2.08;1.65;;;18.00;93.10;;;;;;4200410;28;20056;-87
2022/10/05 10:24:52;;;;;;;3.88;1.70;;;18.00;93.50;;;;;;4183489;28;20103;-87
2022/10/05 10:27:38;;;;;;;2.88;1.42;;;18.00;93.20;;;;;;4182576;28;20042;-87
2022/10/05 10:29:41;;;;;;;2.78;1.65;;;18.00;93.20;;;;;;4174483;28;20085;-88
2022/10/05 10:32:13;;;;;;;3.88;1.40;;;17.80;93.30;;;;;;4176526;28;20045;-88
2022/10/05 10:34:17;;;;;;;6.05;1.92;;;17.80;92.80;;;;;;4151834;28;20085;-87
2022/10/05 10:36:19;;;;;;;2.72;1.50;;;18.00;93.70;;;;;;4169895;28;20123;-88
2022/10/05 10:38:32;;;;;;;4.40;1.90;;;17.60;93.00;;;;;;4166690;28;20052;-85
2022/10/05 10:40:38;;;;;;;2.25;1.75;;;17.50;93.20;;;;;;4166306;28;20490;-86
2022/10/05 10:42:58;;;;;;;2.30;1.70;;;17.40;93.50;;;;;;4167504;28;20469;-86
2022/10/05 10:45:04;;;;;;;3.13;1.77;;;17.30;93.60;;;;;;4166096;28;20045;-86
2022/10/05 10:47:25;;;;;;;2.35;1.50;;;17.30;93.60;;;;;;4148304;28;20509;-86
2022/10/05 10:49:29;;;;;;;2.97;1.67;;;17.20;93.80;;;;;;4181585;28;20045;-86
2022/10/05 10:52:02;;;;;;;3.78;1.80;;;17.20;93.90;;;;;;4181278;28;20056;-86
2022/10/05 10:54:29;;;;;;;3.83;1.63;;;17.30;94.00;;;;;;4164981;28;20540;-86
2022/10/05 10:56:47;;;;;;;7.68;2.13;;;17.20;93.90;;;;;;4182112;28;20049;-85
2022/10/05 10:59:11;;;;;;;4.32;1.83;;;17.30;94.10;;;;;;4183077;28;20056;-86
2022/10/05 11:01:30;;;;;;;6.45;1.45;;;17.20;94.10;;;;;;4165457;28;20045;-85
2022/10/05 11:03:49;;;;;;;2.53;1.80;;;17.20;93.90;;;;;;4198986;28;20056;-85
2022/10/05 11:06:08;;;;;;;5.30;1.88;;;17.20;93.90;;;;;;4183361;28;20060;-85
2022/10/05 11:08:09;;;;;;;;;;;17.20;94.00;;;;;;4181412;28;20123;-85
2022/10/05 11:10:10;;;;;;;6.68;2.05;;;17.10;94.00;;;;;;4182465;28;20376;-85
2022/10/05 11:12:26;;;;;;;5.47;1.77;;;17.10;94.10;;;;;;4182201;28;20041;-85
2022/10/05 11:14:57;;;;;;;2.28;1.80;;;17.10;94.10;;;;;;4182737;28;20433;-85
2022/10/05 11:17:14;;;;;;;3.35;2.20;;;17.10;94.20;;;;;;4182406;28;20052;-85
2022/10/05 11:19:39;;;;;;;2.33;1.60;;;17.10;94.20;;;;;;4182286;28;20053;-85
2022/10/05 11:21:54;;;;;;;4.10;1.75;;;17.10;94.20;;;;;;4182305;28;20096;-85
2022/10/05 11:24:16;;;;;;;2.13;1.70;;;17.10;94.10;;;;;;4180948;28;20080;-85
2022/10/05 11:26:26;;;;;;;3.58;1.73;;;17.00;94.10;;;;;;4181587;28;20049;-84
2022/10/05 11:29:06;;;;;;;5.68;2.28;;;17.10;94.20;;;;;;4181294;28;20486;-85
2022/10/05 11:31:53;;;;;;;2.58;1.70;;;17.00;94.00;;;;;;4180925;28;20151;-85
2022/10/05 11:34:35;;;;;;;3.65;2.08;;;17.00;94.10;;;;;;4182256;28;20098;-85
2022/10/05 11:36:58;;;;;;;4.47;1.88;;;16.90;94.10;;;;;;4181723;28;20056;-85
2022/10/05 11:39:29;;;;;;;3.85;1.92;;;17.00;94.30;;;;;;4182172;28;20048;-85
2022/10/05 11:41:40;;;;;;;5.15;2.25;;;16.90;94.20;;;;;;4180230;28;20044;-85
2022/10/05 11:43:59;;;;;;;4.20;1.95;;;16.90;94.20;;;;;;4181951;28;20409;-85
2022/10/05 11:46:19;;;;;;;3.75;1.85;;;16.90;94.20;;;;;;4182002;28;20084;-85
2022/10/05 11:48:45;;;;;;;4.70;2.10;;;16.80;94.20;;;;;;4180039;28;20052;-86
2022/10/05 11:51:19;;;;;;;4.25;1.88;;;16.80;94.30;;;;;;4182619;28;20049;-85
2022/10/05 11:53:39;;;;;;;4.43;2.03;;;16.80;94.50;;;;;;4181619;28;20058;-85
2022/10/05 11:55:59;;;;;;;1.88;1.60;;;16.80;94.50;;;;;;4182326;28;20084;-85
2022/10/05 11:58:19;;;;;;;2.72;1.88;;;16.80;94.50;;;;;;4184034;28;20041;-85
2022/10/05 12:00:29;;;;;;;4.75;2.05;;;16.80;94.50;;;;;;4183003;28;20112;-84